TimeCST,TemperatureF,Dew PointF,Humidity,Sea Level PressureIn,VisibilityMPH,Wind Direction,Wind SpeedMPH,Gust SpeedMPH,PrecipitationIn,Events,Conditions,WindDirDegrees,DateUTC
12:06 AM,26.6,17.6,69,30.12,10.0,WNW,6.9,-,N/A,,Overcast,290,2012-11-28 06:06:00
12:54 AM,26.1,17.1,69,30.20,10.0,NW,6.9,-,N/A,,Clear,310,2012-11-28 06:54:00
1:18 AM,26.6,17.6,69,30.15,10.0,NW,9.2,-,N/A,,Mostly Cloudy,310,2012-11-28 07:18:00
1:54 AM,25.0,18.0,75,30.22,10.0,NW,8.1,-,N/A,,Mostly Cloudy,310,2012-11-28 07:54:00
2:02 AM,24.8,17.6,74,30.16,10.0,NW,8.1,-,N/A,,Scattered Clouds,310,2012-11-28 08:02:00
2:54 AM,23.0,18.0,81,30.23,10.0,WNW,5.8,-,N/A,,Clear,300,2012-11-28 08:54:00
3:54 AM,23.0,18.0,81,30.23,10.0,WNW,8.1,-,N/A,,Mostly Cloudy,290,2012-11-28 09:54:00
4:54 AM,23.0,17.1,78,30.25,10.0,WNW,8.1,-,N/A,,Mostly Cloudy,300,2012-11-28 10:54:00
5:04 AM,21.2,15.8,80,30.19,10.0,WNW,8.1,-,N/A,,Scattered Clouds,290,2012-11-28 11:04:00
5:25 AM,21.2,15.8,80,30.19,10.0,WNW,6.9,-,N/A,,Mostly Cloudy,290,2012-11-28 11:25:00
6:54 AM,21.9,14.0,72,30.30,10.0,NW,6.9,-,N/A,,Clear,310,2012-11-28 12:54:00
7:54 AM,19.9,14.0,78,30.31,10.0,West,3.5,-,N/A,,Clear,280,2012-11-28 13:54:00
8:54 AM,23.0,15.1,72,30.33,10.0,WNW,6.9,-,N/A,,Clear,290,2012-11-28 14:54:00
9:54 AM,25.0,16.0,69,30.34,10.0,West,9.2,-,N/A,,Partly Cloudy,270,2012-11-28 15:54:00
10:09 AM,24.8,15.8,69,30.28,10.0,WNW,10.4,-,N/A,,Mostly Cloudy,290,2012-11-28 16:09:00
10:54 AM,25.0,16.0,69,30.34,10.0,West,10.4,-,N/A,,Mostly Cloudy,270,2012-11-28 16:54:00
11:13 AM,26.6,17.6,69,30.27,10.0,West,11.5,-,N/A,,Scattered Clouds,270,2012-11-28 17:13:00
11:54 AM,28.0,17.1,63,30.32,10.0,West,11.5,-,N/A,,Clear,280,2012-11-28 17:54:00
12:54 PM,28.9,18.0,64,30.30,10.0,West,10.4,-,N/A,,Clear,260,2012-11-28 18:54:00
1:54 PM,30.0,18.0,61,30.27,10.0,WSW,11.5,-,N/A,,Clear,240,2012-11-28 19:54:00
2:54 PM,30.0,18.0,61,30.26,10.0,WSW,5.8,-,N/A,,Clear,250,2012-11-28 20:54:00
3:54 PM,28.9,18.0,64,30.25,10.0,West,6.9,-,N/A,,Clear,260,2012-11-28 21:54:00
4:54 PM,28.0,18.0,66,30.24,10.0,SW,5.8,-,N/A,,Clear,220,2012-11-28 22:54:00
5:54 PM,27.0,18.0,69,30.24,10.0,Calm,Calm,-,N/A,,Clear,0,2012-11-28 23:54:00
6:54 PM,27.0,18.0,69,30.24,10.0,Calm,Calm,-,N/A,,Clear,0,2012-11-29 00:54:00
7:54 PM,27.0,18.0,69,30.23,10.0,Calm,Calm,-,N/A,,Clear,0,2012-11-29 01:54:00
8:54 PM,26.1,19.0,75,30.22,10.0,Calm,Calm,-,N/A,,Partly Cloudy,0,2012-11-29 02:54:00
9:54 PM,27.0,19.9,75,30.21,10.0,South,3.5,-,N/A,,Mostly Cloudy,190,2012-11-29 03:54:00
10:54 PM,27.0,19.9,75,30.20,9.0,Calm,Calm,-,N/A,,Overcast,0,2012-11-29 04:54:00
11:54 PM,28.0,21.0,75,30.19,9.0,Calm,Calm,-,N/A,,Overcast,0,2012-11-29 05:54:00